Time;durP1;ratioP1;P1;durP2;ratioP2;P2;SDS_P1;SDS_P2;PMS_P1;PMS_P2;Temp;Humidity;BMP_temperature;BMP_pressure;BME280_temperature;BME280_humidity;BME280_pressure;Samples;Min_cycle;Max_cycle;Signal;HPM_P1;HPM_P2
2023/12/29 00:00:03;;;;;;;48.95;9.90;;;11.00;99.90;;;;;;5115405;28;20055;-69
2023/12/29 00:02:28;;;;;;;41.72;9.10;;;11.00;99.90;;;;;;5115363;28;20120;-69
2023/12/29 00:04:54;;;;;;;50.60;9.18;;;11.00;99.90;;;;;;5114880;28;20422;-71
2023/12/29 00:07:20;;;;;;;42.38;8.20;;;11.10;99.90;;;;;;5115418;28;20020;-70
2023/12/29 00:09:45;;;;;;;47.78;9.07;;;11.00;99.90;;;;;;5114091;28;20512;-70
2023/12/29 00:12:11;;;;;;;49.28;9.57;;;11.00;99.90;;;;;;5114527;28;20023;-70
2023/12/29 00:14:38;;;;;;;40.53;8.40;;;11.00;99.90;;;;;;5109204;28;20036;-70
2023/12/29 00:17:04;;;;;;;39.13;8.88;;;11.00;99.90;;;;;;5114676;28;20019;-69
2023/12/29 00:19:29;;;;;;;44.83;8.77;;;11.00;99.90;;;;;;5114284;28;20034;-70
2023/12/29 00:21:55;;;;;;;39.45;8.30;;;11.00;99.90;;;;;;5114533;28;20027;-70
2023/12/29 00:24:20;;;;;;;40.80;8.07;;;11.00;99.90;;;;;;5114906;28;20111;-70
2023/12/29 00:26:47;;;;;;;40.70;8.20;;;11.00;99.90;;;;;;5114716;28;20035;-70
2023/12/29 00:29:14;;;;;;;40.40;8.15;;;11.00;99.90;;;;;;5114762;28;20038;-70
2023/12/29 00:31:40;;;;;;;34.40;7.93;;;10.90;99.90;;;;;;5113379;28;20020;-69
2023/12/29 00:34:06;;;;;;;38.35;8.48;;;10.90;99.90;;;;;;5111354;28;20024;-69
2023/12/29 00:36:31;;;;;;;44.17;8.05;;;10.90;99.90;;;;;;5114086;28;20093;-69
2023/12/29 00:38:57;;;;;;;44.10;8.00;;;10.90;99.90;;;;;;5115102;28;20064;-69
2023/12/29 00:41:22;;;;;;;39.35;8.88;;;10.90;99.90;;;;;;5115231;28;20016;-69
2023/12/29 00:43:48;;;;;;;37.00;7.18;;;10.90;99.90;;;;;;5114692;28;20023;-69
2023/12/29 00:46:17;;;;;;;48.97;8.40;;;10.90;99.90;;;;;;5112852;28;20027;-69
2023/12/29 00:48:43;;;;;;;33.90;7.90;;;10.90;99.90;;;;;;5112030;28;20039;-69
2023/12/29 00:51:08;;;;;;;41.92;7.28;;;10.90;99.90;;;;;;5113624;28;20465;-69
2023/12/29 00:53:37;;;;;;;39.63;6.53;;;10.90;99.90;;;;;;5111316;28;20464;-70
2023/12/29 00:56:03;;;;;;;29.92;8.02;;;10.90;99.90;;;;;;5113157;28;20039;-69
2023/12/29 00:58:28;;;;;;;30.02;7.03;;;10.90;99.90;;;;;;5114616;28;20484;-69
2023/12/29 01:00:54;;;;;;;42.05;7.78;;;10.90;99.90;;;;;;5114140;28;20397;-70
2023/12/29 01:03:20;;;;;;;40.92;7.05;;;10.90;99.90;;;;;;5113286;28;20019;-69
2023/12/29 01:05:46;;;;;;;44.75;7.57;;;10.90;99.90;;;;;;5110370;28;20079;-69
2023/12/29 01:08:11;;;;;;;39.03;9.02;;;10.90;99.90;;;;;;5114093;28;20068;-69
2023/12/29 01:10:37;;;;;;;38.83;8.27;;;10.90;99.90;;;;;;5111609;28;20032;-68
2023/12/29 01:13:03;;;;;;;35.95;7.20;;;11.00;99.90;;;;;;5108668;28;20043;-69
2023/12/29 01:15:29;;;;;;;37.72;7.60;;;11.00;99.90;;;;;;5114540;28;20058;-69
2023/12/29 01:17:54;;;;;;;34.10;6.95;;;10.90;99.90;;;;;;5115015;28;20051;-69
2023/12/29 01:20:20;;;;;;;32.17;6.50;;;10.90;99.90;;;;;;5107790;28;20114;-68
2023/12/29 01:22:45;;;;;;;38.10;8.10;;;11.00;99.90;;;;;;5105272;28;20476;-69
2023/12/29 01:25:11;;;;;;;28.77;6.90;;;11.00;99.90;;;;;;5114461;28;20036;-69
2023/12/29 01:27:36;;;;;;;35.00;6.50;;;10.90;99.90;;;;;;5105166;28;20117;-69
2023/12/29 01:30:02;;;;;;;31.67;6.78;;;10.90;99.90;;;;;;5114045;28;20028;-69
2023/12/29 01:32:28;;;;;;;37.05;7.85;;;10.90;99.90;;;;;;5113593;28;20027;-68
2023/12/29 01:34:53;;;;;;;32.95;7.03;;;10.90;99.90;;;;;;5109131;28;20055;-68
2023/12/29 01:37:19;;;;;;;29.45;7.20;;;10.90;99.90;;;;;;5113714;28;20023;-69
2023/12/29 01:39:44;;;;;;;28.40;6.18;;;10.90;99.90;;;;;;5113741;28;20032;-69
2023/12/29 01:42:13;;;;;;;42.72;8.25;;;10.90;99.90;;;;;;5114175;28;20031;-70
2023/12/29 01:44:39;;;;;;;29.90;7.20;;;10.90;99.90;;;;;;5113436;28;20099;-71
2023/12/29 01:47:12;;;;;;;30.45;6.50;;;10.90;99.90;;;;;;5108264;28;20114;-69
2023/12/29 01:49:38;;;;;;;35.53;6.70;;;10.90;99.90;;;;;;5111631;28;20028;-70
2023/12/29 01:52:04;;;;;;;33.92;6.30;;;10.90;99.90;;;;;;5113819;28;20027;-70
2023/12/29 01:54:35;;;;;;;29.60;6.68;;;11.00;99.90;;;;;;5113515;28;20094;-70
2023/12/29 01:57:02;;;;;;;36.00;7.80;;;11.00;99.90;;;;;;5113749;28;20114;-69
2023/12/29 01:59:29;;;;;;;27.83;6.93;;;11.00;99.90;;;;;;5113262;28;20040;-69
2023/12/29 02:01:57;;;;;;;33.92;7.07;;;11.10;99.90;;;;;;5113368;28;20036;-69
2023/12/29 02:04:27;;;;;;;36.83;7.30;;;11.10;99.90;;;;;;5113364;28;20491;-69
2023/12/29 02:06:53;;;;;;;34.08;6.68;;;11.20;99.90;;;;;;5098277;28;20141;-69
2023/12/29 02:09:19;;;;;;;32.17;7.18;;;11.20;99.90;;;;;;5113125;28;20030;-69
2023/12/29 02:11:46;;;;;;;41.40;7.57;;;11.20;99.90;;;;;;5111503;28;20040;-69
2023/12/29 02:14:12;;;;;;;35.78;6.85;;;11.10;99.90;;;;;;5113058;28;20055;-69
2023/12/29 02:16:41;;;;;;;31.70;6.28;;;11.10;99.90;;;;;;5113141;28;20047;-69
2023/12/29 02:19:46;;;;;;;38.13;7.57;;;11.10;99.90;;;;;;5112788;28;20114;-69
2023/12/29 02:22:12;;;;;;;29.67;6.40;;;11.20;99.90;;;;;;5103273;28;20032;-69
2023/12/29 02:24:39;;;;;;;36.63;6.43;;;11.20;99.90;;;;;;5112653;28;20027;-69
2023/12/29 02:27:27;;;;;;;36.00;7.38;;;11.10;99.90;;;;;;5112773;28;20046;-69
2023/12/29 02:30:12;;;;;;;33.88;8.18;;;11.00;99.90;;;;;;5092930;28;20032;-68
2023/12/29 02:32:42;;;;;;;35.85;8.25;;;11.00;99.90;;;;;;5113207;28;20077;-69
2023/12/29 02:35:11;;;;;;;32.65;7.18;;;11.00;99.90;;;;;;5112893;28;20092;-69
2023/12/29 02:37:38;;;;;;;40.15;7.78;;;11.00;99.90;;;;;;5112858;28;20059;-69
2023/12/29 02:40:04;;;;;;;37.97;8.80;;;11.00;99.90;;;;;;5112836;28;20035;-69
2023/12/29 02:42:29;;;;;;;32.88;7.88;;;11.00;99.90;;;;;;5104996;28;20519;-68
2023/12/29 02:44:55;;;;;;;38.85;9.27;;;11.00;99.90;;;;;;5104532;28;20051;-70
2023/12/29 02:47:21;;;;;;;36.88;8.25;;;11.00;99.90;;;;;;5112262;28;20048;-69
2023/12/29 02:49:47;;;;;;;37.85;8.35;;;11.00;99.90;;;;;;5112263;28;20063;-68
2023/12/29 02:52:13;;;;;;;37.22;7.43;;;11.00;99.90;;;;;;5112565;28;20076;-69
2023/12/29 02:54:38;;;;;;;44.33;9.00;;;11.00;99.90;;;;;;5112218;28;20023;-68
2023/12/29 02:57:04;;;;;;;39.25;8.02;;;11.00;99.90;;;;;;5112693;28;20084;-68
2023/12/29 02:59:29;;;;;;;38.15;7.78;;;11.00;99.90;;;;;;5112364;28;20042;-68
2023/12/29 03:01:55;;;;;;;36.97;7.57;;;11.00;99.90;;;;;;5111658;28;20400;-68
2023/12/29 03:04:20;;;;;;;37.75;7.72;;;11.00;99.90;;;;;;5103370;28;20083;-68
2023/12/29 03:06:46;;;;;;;29.88;6.63;;;10.90;99.90;;;;;;5106460;28;20039;-69
2023/12/29 03:09:11;;;;;;;30.95;6.88;;;10.90;99.90;;;;;;5101424;28;20028;-69
2023/12/29 03:11:37;;;;;;;30.33;5.53;;;10.90;99.90;;;;;;5104663;28;20446;-69
2023/12/29 03:14:03;;;;;;;33.85;6.90;;;10.90;99.90;;;;;;5112270;28;20452;-68
2023/12/29 03:16:28;;;;;;;34.95;6.80;;;10.90;99.90;;;;;;5111759;28;20023;-68
2023/12/29 03:18:54;;;;;;;33.75;6.25;;;10.90;99.90;;;;;;5104425;28;20110;-68
2023/12/29 03:21:20;;;;;;;30.58;6.47;;;10.90;99.90;;;;;;5111977;28;20076;-69
2023/12/29 03:23:46;;;;;;;31.30;6.85;;;10.90;99.90;;;;;;5112110;28;20039;-69
2023/12/29 03:26:12;;;;;;;31.95;6.38;;;10.90;99.90;;;;;;5114891;28;20038;-69
2023/12/29 03:28:37;;;;;;;30.50;6.25;;;10.90;99.90;;;;;;5114880;28;20425;-69
2023/12/29 03:31:03;;;;;;;32.28;6.78;;;11.00;99.90;;;;;;5116110;28;20111;-69
2023/12/29 03:33:29;;;;;;;29.52;6.15;;;10.90;99.90;;;;;;5116027;28;20055;-69
2023/12/29 03:35:55;;;;;;;33.40;7.50;;;10.90;99.90;;;;;;5114119;28;20198;-69
2023/12/29 03:38:20;;;;;;;31.10;5.80;;;10.90;99.90;;;;;;5116062;28;20110;-69
2023/12/29 03:40:46;;;;;;;34.90;6.70;;;10.90;99.90;;;;;;5115754;28;20047;-68
2023/12/29 03:43:11;;;;;;;30.58;5.55;;;10.90;99.90;;;;;;5123759;27;20027;-68
2023/12/29 03:45:37;;;;;;;27.35;6.00;;;10.80;99.90;;;;;;5118234;27;20024;-69
2023/12/29 03:48:03;;;;;;;28.23;5.30;;;10.90;99.90;;;;;;5116277;28;20027;-69
2023/12/29 03:50:28;;;;;;;33.60;6.75;;;10.80;99.90;;;;;;5108742;28;20027;-69
2023/12/29 03:52:54;;;;;;;32.42;7.53;;;10.90;99.90;;;;;;5116199;28;20026;-69
2023/12/29 03:55:19;;;;;;;25.75;5.40;;;10.90;99.90;;;;;;5116374;28;20035;-69
2023/12/29 03:57:45;;;;;;;26.00;5.70;;;10.90;99.90;;;;;;5105485;28;20447;-69
2023/12/29 04:00:14;;;;;;;30.23;5.78;;;10.80;99.90;;;;;;5093768;28;20081;-69
2023/12/29 04:02:40;;;;;;;28.77;5.85;;;10.80;99.90;;;;;;5119973;27;20059;-69
2023/12/29 04:05:08;;;;;;;28.77;6.18;;;10.80;99.90;;;;;;5115801;28;20032;-69
2023/12/29 04:07:34;;;;;;;31.95;5.93;;;10.80;99.90;;;;;;5115592;28;20106;-68
2023/12/29 04:09:59;;;;;;;30.20;6.72;;;10.80;99.90;;;;;;5115552;28;20123;-69
2023/12/29 04:12:25;;;;;;;26.05;5.53;;;10.80;99.90;;;;;;5116313;28;20407;-69
2023/12/29 04:14:50;;;;;;;28.48;6.18;;;10.80;99.90;;;;;;5115669;28;20027;-69
2023/12/29 04:17:16;;;;;;;32.20;6.18;;;10.80;99.90;;;;;;5107742;28;20032;-69
2023/12/29 04:19:42;;;;;;;33.13;6.25;;;10.90;99.90;;;;;;5103921;28;20024;-69
2023/12/29 04:22:08;;;;;;;33.22;6.43;;;10.90;99.90;;;;;;5115755;28;20080;-69
2023/12/29 04:24:34;;;;;;;28.73;5.93;;;11.00;99.90;;;;;;5115718;28;20032;-69
2023/12/29 04:26:59;;;;;;;30.52;6.25;;;11.00;99.90;;;;;;5114652;28;20126;-69
2023/12/29 04:29:25;;;;;;;38.78;6.78;;;11.00;99.90;;;;;;5106895;28;20599;-69
2023/12/29 04:31:50;;;;;;;34.17;7.20;;;11.00;99.90;;;;;;5115197;28;20410;-69
2023/12/29 04:34:16;;;;;;;31.10;6.47;;;11.10;99.90;;;;;;5110161;28;20055;-68
2023/12/29 04:36:41;;;;;;;30.45;6.82;;;11.10;99.90;;;;;;5112264;28;20032;-69
2023/12/29 04:39:10;;;;;;;35.72;7.05;;;11.10;99.90;;;;;;5114955;28;20027;-68
2023/12/29 04:41:36;;;;;;;34.50;7.07;;;11.10;99.90;;;;;;5114867;28;20108;-69
2023/12/29 04:44:01;;;;;;;34.05;7.05;;;11.10;99.90;;;;;;5114903;28;20047;-69
2023/12/29 04:46:27;;;;;;;26.85;5.82;;;11.10;99.90;;;;;;5114534;28;20035;-69
2023/12/29 04:48:53;;;;;;;32.88;7.03;;;11.10;99.90;;;;;;5114537;28;20068;-68
2023/12/29 04:51:18;;;;;;;34.58;7.85;;;11.10;99.90;;;;;;5114752;28;20031;-68
2023/12/29 04:53:44;;;;;;;33.03;7.53;;;11.00;99.90;;;;;;5114431;28;20020;-69
2023/12/29 04:56:10;;;;;;;30.88;5.97;;;11.00;99.90;;;;;;5112711;28;20084;-69
2023/12/29 04:58:35;;;;;;;29.67;5.88;;;11.00;99.90;;;;;;5114518;28;20032;-69
2023/12/29 05:01:01;;;;;;;36.05;6.43;;;10.90;99.90;;;;;;5114051;28;20054;-69
2023/12/29 05:03:26;;;;;;;42.90;8.80;;;10.90;99.90;;;;;;5115019;28;20036;-67
2023/12/29 05:05:52;;;;;;;30.23;6.60;;;10.90;99.90;;;;;;5106282;28;20035;-68
2023/12/29 05:08:17;;;;;;;30.27;6.30;;;10.90;99.90;;;;;;5112617;28;20034;-68
2023/12/29 05:10:43;;;;;;;35.70;6.15;;;10.90;99.90;;;;;;5114772;28;20024;-68
2023/12/29 05:13:09;;;;;;;31.50;6.78;;;10.90;99.90;;;;;;5114124;28;20031;-68
2023/12/29 05:15:34;;;;;;;35.00;7.43;;;10.90;99.90;;;;;;5114360;28;20436;-68
2023/12/29 05:18:00;;;;;;;34.22;6.65;;;10.90;99.90;;;;;;5114415;28;20027;-68
2023/12/29 05:20:25;;;;;;;34.03;6.55;;;10.90;99.90;;;;;;5114939;28;20031;-68
2023/12/29 05:22:51;;;;;;;33.35;6.13;;;10.90;99.90;;;;;;5112561;28;20020;-68
2023/12/29 05:25:16;;;;;;;38.30;7.40;;;10.80;99.90;;;;;;5108283;28;20036;-67
2023/12/29 05:27:42;;;;;;;38.25;7.07;;;10.90;99.90;;;;;;5112104;28;20032;-68
2023/12/29 05:30:08;;;;;;;38.95;7.50;;;10.90;99.90;;;;;;5114175;28;20020;-68
2023/12/29 05:32:33;;;;;;;40.53;7.72;;;10.90;99.90;;;;;;5114005;28;20027;-69
2023/12/29 05:34:59;;;;;;;39.17;7.80;;;10.90;99.90;;;;;;5111500;27;20039;-69
2023/12/29 05:37:24;;;;;;;34.75;7.80;;;10.90;99.90;;;;;;5110888;28;20020;-68
2023/12/29 05:39:50;;;;;;;37.03;8.63;;;10.80;99.90;;;;;;5114553;28;20131;-68
2023/12/29 05:42:15;;;;;;;41.88;8.00;;;10.80;99.90;;;;;;5114071;28;20039;-69
2023/12/29 05:44:41;;;;;;;40.53;7.70;;;10.90;99.90;;;;;;5114396;28;20031;-68
2023/12/29 05:47:07;;;;;;;33.55;6.82;;;10.90;99.90;;;;;;5114233;28;20040;-68
2023/12/29 05:49:37;;;;;;;39.17;7.65;;;10.90;99.90;;;;;;5103070;28;20020;-68
2023/12/29 05:52:03;;;;;;;38.63;7.95;;;10.90;99.90;;;;;;5110725;28;20404;-68
2023/12/29 05:54:29;;;;;;;40.25;8.43;;;10.90;99.90;;;;;;5114000;28;20449;-68
2023/12/29 05:56:55;;;;;;;36.30;8.32;;;10.90;99.90;;;;;;5111866;28;20035;-69
2023/12/29 05:59:20;;;;;;;38.55;7.88;;;10.90;99.90;;;;;;5108009;28;20547;-68
2023/12/29 06:01:46;;;;;;;37.95;8.32;;;10.90;99.90;;;;;;5111620;28;20556;-70
2023/12/29 06:04:11;;;;;;;41.92;8.13;;;11.00;99.90;;;;;;5113479;28;20479;-69
2023/12/29 06:06:37;;;;;;;34.90;8.23;;;10.90;99.90;;;;;;5113476;28;20476;-69
2023/12/29 06:09:02;;;;;;;43.45;8.65;;;10.90;99.90;;;;;;5113433;28;20027;-68
2023/12/29 06:11:28;;;;;;;34.53;8.55;;;11.00;99.90;;;;;;5113368;28;20031;-69
2023/12/29 06:13:53;;;;;;;31.92;7.45;;;11.00;99.90;;;;;;5111716;28;20051;-69
2023/12/29 06:16:20;;;;;;;36.95;7.30;;;11.00;99.90;;;;;;5110904;28;20103;-69
2023/12/29 06:18:46;;;;;;;41.45;8.00;;;11.00;99.90;;;;;;5112533;27;20034;-69
2023/12/29 06:21:12;;;;;;;30.75;7.72;;;11.00;99.90;;;;;;5113416;28;20031;-69
2023/12/29 06:23:38;;;;;;;37.35;7.38;;;11.00;99.90;;;;;;5113062;28;20027;-69
2023/12/29 06:26:03;;;;;;;35.92;7.53;;;11.00;99.90;;;;;;5113282;28;20089;-70
2023/12/29 06:28:29;;;;;;;42.72;8.20;;;11.10;99.90;;;;;;5113650;28;20039;-68
2023/12/29 06:30:54;;;;;;;38.15;8.82;;;11.10;99.90;;;;;;5106623;28;20473;-68
2023/12/29 06:33:22;;;;;;;41.63;8.68;;;11.10;99.90;;;;;;5126005;27;20019;-68
2023/12/29 06:35:48;;;;;;;30.38;7.47;;;11.10;99.90;;;;;;5103639;27;20453;-69
2023/12/29 06:38:14;;;;;;;38.50;8.35;;;11.10;99.90;;;;;;5113672;28;20027;-69
2023/12/29 06:40:40;;;;;;;42.35;7.90;;;11.10;99.90;;;;;;5109843;28;20372;-68
2023/12/29 06:43:05;;;;;;;41.58;7.93;;;11.10;99.90;;;;;;5110841;27;20085;-69
2023/12/29 06:45:31;;;;;;;40.92;8.15;;;11.10;99.90;;;;;;5112384;28;20035;-68
2023/12/29 06:47:57;;;;;;;38.80;7.57;;;11.10;99.90;;;;;;5112781;28;20443;-68
2023/12/29 06:50:22;;;;;;;33.63;7.18;;;11.10;99.90;;;;;;5113075;28;20538;-69
2023/12/29 06:52:48;;;;;;;40.45;8.07;;;11.10;99.90;;;;;;5113171;28;20020;-68
2023/12/29 06:55:13;;;;;;;40.88;7.80;;;11.00;99.90;;;;;;5106510;28;20039;-69
2023/12/29 06:57:39;;;;;;;44.38;8.15;;;11.00;99.90;;;;;;5121950;27;20027;-68
2023/12/29 07:00:05;;;;;;;37.38;7.90;;;11.10;99.90;;;;;;5112432;28;20585;-68
2023/12/29 07:02:31;;;;;;;38.47;7.28;;;11.00;99.90;;;;;;5112444;28;20058;-68
2023/12/29 07:04:57;;;;;;;42.78;7.50;;;11.00;99.90;;;;;;5112651;28;20039;-69
2023/12/29 07:07:22;;;;;;;39.17;7.25;;;11.00;99.90;;;;;;5112168;28;20031;-68
2023/12/29 07:09:48;;;;;;;30.52;6.57;;;11.00;99.90;;;;;;5112380;28;20103;-68
2023/12/29 07:12:13;;;;;;;39.30;7.13;;;11.00;99.90;;;;;;5108435;28;20024;-68
2023/12/29 07:14:41;;;;;;;42.67;7.63;;;11.00;99.90;;;;;;5102228;28;20023;-68
2023/12/29 07:17:06;;;;;;;38.83;8.15;;;11.10;99.90;;;;;;5111175;28;20042;-67
2023/12/29 07:19:36;;;;;;;41.10;7.15;;;11.10;99.90;;;;;;5112487;28;20023;-68
2023/12/29 07:22:04;;;;;;;31.85;6.63;;;11.10;99.90;;;;;;5112452;28;20031;-69
2023/12/29 07:24:30;;;;;;;35.97;7.13;;;11.10;99.90;;;;;;5112621;28;20134;-68
2023/12/29 07:26:56;;;;;;;43.53;8.02;;;11.20;99.90;;;;;;5112134;28;20108;-69
2023/12/29 07:29:21;;;;;;;38.97;8.93;;;11.20;99.90;;;;;;5111103;28;20096;-68
2023/12/29 07:31:47;;;;;;;41.72;8.20;;;11.20;99.90;;;;;;5109870;28;21032;-68
2023/12/29 07:34:13;;;;;;;38.05;7.28;;;11.20;99.90;;;;;;5109862;28;20031;-69
2023/12/29 07:36:39;;;;;;;33.03;7.43;;;11.20;99.90;;;;;;5110519;28;20047;-69
2023/12/29 07:39:05;;;;;;;36.83;7.93;;;11.20;99.90;;;;;;5111791;28;20036;-69
2023/12/29 07:41:30;;;;;;;39.03;8.57;;;11.30;99.90;;;;;;5111925;28;20020;-69
2023/12/29 07:43:56;;;;;;;40.63;8.15;;;11.20;99.90;;;;;;5112117;28;20072;-69
2023/12/29 07:46:27;;;;;;;32.33;6.82;;;11.20;99.90;;;;;;5112183;28;20110;-68
2023/12/29 07:48:53;;;;;;;38.22;7.38;;;11.20;99.90;;;;;;5110283;28;20035;-69
2023/12/29 07:51:19;;;;;;;39.53;7.82;;;11.20;99.90;;;;;;5112208;28;20110;-69
2023/12/29 07:53:44;;;;;;;43.55;9.38;;;11.30;99.90;;;;;;5111769;28;20028;-69
2023/12/29 07:56:10;;;;;;;32.03;7.28;;;11.30;99.90;;;;;;5097626;28;20349;-69
2023/12/29 07:58:36;;;;;;;38.90;8.40;;;11.20;99.90;;;;;;5109689;28;20376;-69
2023/12/29 08:01:01;;;;;;;41.40;8.57;;;11.20;99.90;;;;;;5123521;28;20050;-68
2023/12/29 08:03:27;;;;;;;39.25;8.05;;;11.20;99.90;;;;;;5119448;28;20107;-69
2023/12/29 08:05:52;;;;;;;40.95;7.88;;;11.20;99.90;;;;;;5114669;28;20031;-68
2023/12/29 08:08:18;;;;;;;38.42;6.85;;;11.20;99.90;;;;;;5096238;28;20465;-68
2023/12/29 08:10:44;;;;;;;47.03;8.52;;;11.20;99.90;;;;;;5111817;28;20488;-68
2023/12/29 08:13:09;;;;;;;49.97;9.07;;;11.20;99.90;;;;;;5115729;28;20028;-69
2023/12/29 08:15:35;;;;;;;43.17;8.15;;;11.20;99.90;;;;;;5113822;28;20067;-67
2023/12/29 08:18:01;;;;;;;35.72;6.78;;;11.20;99.90;;;;;;5113427;28;20024;-67
2023/12/29 08:20:26;;;;;;;41.50;8.05;;;11.20;99.90;;;;;;5115453;28;20491;-68
2023/12/29 08:22:52;;;;;;;39.45;7.82;;;11.20;99.90;;;;;;5106878;28;20034;-68
2023/12/29 08:25:17;;;;;;;43.05;8.02;;;11.20;99.90;;;;;;5115175;28;20396;-68
2023/12/29 08:27:43;;;;;;;45.08;8.68;;;11.30;99.90;;;;;;5110723;28;20035;-67
2023/12/29 08:30:09;;;;;;;41.53;8.60;;;11.30;99.90;;;;;;5113679;28;20084;-68
2023/12/29 08:32:34;;;;;;;44.00;7.78;;;11.30;99.90;;;;;;5110871;28;20108;-69
2023/12/29 08:35:00;;;;;;;37.70;8.35;;;11.30;99.90;;;;;;5115778;28;20477;-68
2023/12/29 08:37:26;;;;;;;32.53;7.50;;;11.30;99.90;;;;;;5115398;28;20497;-68
2023/12/29 08:39:52;;;;;;;40.70;7.53;;;11.40;99.90;;;;;;5115227;28;20472;-69
2023/12/29 08:42:17;;;;;;;36.22;7.13;;;11.30;99.90;;;;;;5115249;28;20031;-69
2023/12/29 08:44:43;;;;;;;34.92;6.88;;;11.30;99.90;;;;;;5107980;28;20030;-68
2023/12/29 08:47:09;;;;;;;31.17;6.65;;;11.30;99.90;;;;;;5108987;28;20134;-69
2023/12/29 08:49:36;;;;;;;30.73;6.20;;;11.30;99.90;;;;;;5113251;28;20032;-70
2023/12/29 08:52:02;;;;;;;33.65;6.90;;;11.30;99.90;;;;;;5108860;28;20030;-69
2023/12/29 08:54:27;;;;;;;26.40;5.07;;;11.20;99.90;;;;;;5114870;28;20020;-70
2023/12/29 08:56:53;;;;;;;33.90;6.07;;;11.20;99.90;;;;;;5115201;28;20723;-69
2023/12/29 08:59:19;;;;;;;30.15;5.35;;;11.20;99.90;;;;;;5110273;28;20143;-68
2023/12/29 09:01:44;;;;;;;26.10;6.00;;;11.20;99.90;;;;;;5114626;28;20483;-69
2023/12/29 09:04:10;;;;;;;31.80;5.90;;;11.20;99.90;;;;;;5107626;28;20040;-69
2023/12/29 09:06:35;;;;;;;29.83;5.60;;;11.20;99.90;;;;;;5103169;28;20074;-69
2023/12/29 09:09:01;;;;;;;32.15;5.70;;;11.30;99.90;;;;;;5101804;28;20442;-69
2023/12/29 09:11:26;;;;;;;32.05;5.88;;;11.30;99.90;;;;;;5112823;28;20084;-69
2023/12/29 09:13:52;;;;;;;30.08;6.25;;;11.30;99.90;;;;;;5108672;28;20042;-69
2023/12/29 09:16:18;;;;;;;29.38;5.60;;;11.30;99.90;;;;;;5114328;28;20019;-69
2023/12/29 09:18:43;;;;;;;26.83;5.50;;;11.30;99.90;;;;;;5114628;28;20043;-69
2023/12/29 09:21:09;;;;;;;23.35;4.82;;;11.30;99.90;;;;;;5112199;28;20035;-68
2023/12/29 09:23:37;;;;;;;24.65;4.72;;;11.30;99.90;;;;;;5113147;28;20027;-69
2023/12/29 09:26:03;;;;;;;34.70;5.72;;;11.30;99.90;;;;;;5113853;28;20075;-69
2023/12/29 09:28:28;;;;;;;27.30;6.18;;;11.30;99.90;;;;;;5114407;28;20061;-70
2023/12/29 09:30:54;;;;;;;32.35;6.22;;;11.30;99.90;;;;;;5114078;28;20098;-70
2023/12/29 09:33:19;;;;;;;42.70;7.07;;;11.30;99.90;;;;;;5114235;28;20024;-70
2023/12/29 09:35:45;;;;;;;28.85;6.22;;;11.30;99.90;;;;;;5113475;28;20039;-70
2023/12/29 09:38:10;;;;;;;35.55;6.50;;;11.40;99.90;;;;;;5094112;28;20094;-69
2023/12/29 09:40:36;;;;;;;30.58;6.25;;;11.40;99.90;;;;;;5100876;28;20053;-69
2023/12/29 09:43:04;;;;;;;33.65;6.50;;;11.40;99.90;;;;;;5108492;28;20062;-69
2023/12/29 09:45:33;;;;;;;47.00;6.93;;;11.40;99.90;;;;;;5108165;28;20036;-68
2023/12/29 09:48:12;;;;;;;37.55;7.00;;;11.40;99.90;;;;;;5109527;28;20476;-69
2023/12/29 09:50:38;;;;;;;36.63;6.57;;;11.40;99.90;;;;;;5110454;28;20042;-69
2023/12/29 09:53:04;;;;;;;34.78;6.82;;;11.50;99.90;;;;;;5111749;28;20075;-69
2023/12/29 09:55:31;;;;;;;40.90;8.25;;;11.50;99.90;;;;;;5113565;28;20027;-69
2023/12/29 09:57:59;;;;;;;35.95;7.28;;;11.50;99.90;;;;;;5112602;28;20023;-70
2023/12/29 10:00:25;;;;;;;40.42;7.38;;;11.50;99.90;;;;;;5101134;28;20076;-69
2023/12/29 10:02:54;;;;;;;33.97;6.75;;;11.60;99.90;;;;;;5111273;28;20048;-69
2023/12/29 10:05:20;;;;;;;27.45;5.43;;;11.60;99.90;;;;;;5113159;28;20115;-69
2023/12/29 10:07:47;;;;;;;29.58;6.65;;;11.70;99.90;;;;;;5112349;28;20541;-69
2023/12/29 10:10:15;;;;;;;30.70;5.40;;;11.70;99.90;;;;;;5113078;28;20434;-69
2023/12/29 10:12:42;;;;;;;29.27;5.53;;;11.80;99.90;;;;;;5112891;28;20019;-69
2023/12/29 10:15:17;;;;;;;28.52;6.45;;;11.80;99.90;;;;;;5109205;28;20032;-70
2023/12/29 10:17:55;;;;;;;34.80;6.40;;;11.80;99.90;;;;;;5112799;28;20026;-69
2023/12/29 10:20:42;;;;;;;29.95;6.10;;;11.80;99.90;;;;;;5112603;28;20052;-69
2023/12/29 10:23:18;;;;;;;34.35;6.18;;;11.80;99.90;;;;;;5111870;28;20024;-69
2023/12/29 10:25:44;;;;;;;23.88;5.13;;;11.80;99.90;;;;;;5110543;28;20050;-69
2023/12/29 10:28:10;;;;;;;20.45;4.45;;;11.80;99.90;;;;;;5112983;28;20536;-69
2023/12/29 10:30:37;;;;;;;23.52;4.60;;;11.80;99.90;;;;;;5112909;28;20134;-69
2023/12/29 10:33:04;;;;;;;17.85;4.38;;;11.80;99.90;;;;;;5102606;28;20024;-69
2023/12/29 10:35:30;;;;;;;20.60;3.95;;;11.80;99.90;;;;;;5110558;28;20034;-69
2023/12/29 10:38:10;;;;;;;24.35;4.05;;;11.90;99.90;;;;;;5112985;28;20023;-69
2023/12/29 10:40:36;;;;;;;28.10;4.60;;;12.00;99.90;;;;;;5113129;28;20523;-69
2023/12/29 10:43:06;;;;;;;27.38;5.22;;;12.10;99.90;;;;;;5108802;28;20080;-69
2023/12/29 10:45:32;;;;;;;25.00;4.93;;;12.10;99.90;;;;;;5110200;28;20024;-69
2023/12/29 10:48:25;;;;;;;31.85;6.43;;;12.20;99.90;;;;;;5105728;28;20038;-69
2023/12/29 10:50:50;;;;;;;27.70;4.78;;;12.40;99.90;;;;;;5107367;28;20034;-69
2023/12/29 10:53:17;;;;;;;28.50;6.20;;;12.50;99.90;;;;;;5112734;28;20024;-69
2023/12/29 10:55:43;;;;;;;22.73;4.25;;;12.50;99.90;;;;;;5112172;28;20573;-69
2023/12/29 10:58:08;;;;;;;24.55;4.40;;;12.50;99.90;;;;;;5112796;28;20020;-69
2023/12/29 11:00:34;;;;;;;27.65;5.05;;;12.60;99.90;;;;;;5108922;28;20165;-69
2023/12/29 11:03:01;;;;;;;24.67;5.00;;;12.60;99.90;;;;;;5112302;28;20465;-70
2023/12/29 11:05:27;;;;;;;27.85;5.00;;;12.60;99.90;;;;;;5111320;28;20595;-69
2023/12/29 11:07:54;;;;;;;21.65;3.97;;;12.60;99.90;;;;;;5112377;28;20027;-69
2023/12/29 11:10:21;;;;;;;28.52;4.55;;;12.60;99.90;;;;;;5112323;28;20098;-69
2023/12/29 11:12:48;;;;;;;24.15;4.55;;;12.60;99.90;;;;;;5111615;28;20024;-69
2023/12/29 11:15:15;;;;;;;24.27;4.57;;;12.60;99.90;;;;;;5110012;28;20021;-68
2023/12/29 11:17:52;;;;;;;25.65;5.25;;;12.60;99.90;;;;;;5107377;28;20032;-70
2023/12/29 11:20:18;;;;;;;26.65;4.68;;;12.60;99.90;;;;;;5110932;28;20030;-69
2023/12/29 11:22:46;;;;;;;21.25;4.22;;;12.50;99.90;;;;;;5110112;28;20032;-68
2023/12/29 11:25:12;;;;;;;23.50;4.60;;;12.40;99.90;;;;;;5112332;28;20020;-69
2023/12/29 11:27:38;;;;;;;24.90;4.28;;;12.40;99.90;;;;;;5110960;28;20028;-69
2023/12/29 11:30:04;;;;;;;22.42;5.03;;;12.30;99.90;;;;;;5111312;28;20543;-68
2023/12/29 11:33:06;;;;;;;24.75;4.55;;;12.40;99.90;;;;;;5108750;28;20073;-69
2023/12/29 11:35:42;;;;;;;23.77;4.30;;;12.30;99.90;;;;;;5105079;28;20389;-68
2023/12/29 11:38:35;;;;;;;23.25;4.70;;;12.30;99.90;;;;;;5108372;28;20031;-68
2023/12/29 11:41:16;;;;;;;21.70;4.40;;;12.40;99.90;;;;;;5107730;28;20086;-69
2023/12/29 11:43:42;;;;;;;24.63;4.80;;;12.40;99.90;;;;;;5095918;28;20028;-69
2023/12/29 11:46:34;;;;;;;24.88;4.75;;;12.40;99.90;;;;;;5113079;28;20058;-68
2023/12/29 11:49:04;;;;;;;22.27;4.38;;;12.40;99.90;;;;;;5113828;28;20055;-68
2023/12/29 11:51:35;;;;;;;18.00;3.92;;;12.50;99.90;;;;;;5116237;28;20100;-69
2023/12/29 11:54:05;;;;;;;23.67;4.07;;;12.60;99.90;;;;;;5114297;28;20115;-68
2023/12/29 11:56:40;;;;;;;25.50;4.30;;;12.60;99.90;;;;;;5115906;28;20059;-68
2023/12/29 11:59:19;;;;;;;19.92;4.93;;;12.70;99.90;;;;;;5112627;28;20038;-69
2023/12/29 12:01:48;;;;;;;21.83;4.40;;;12.60;99.90;;;;;;5112302;28;20358;-68
2023/12/29 12:04:45;;;;;;;21.00;4.00;;;12.50;99.90;;;;;;5115807;28;20024;-68
2023/12/29 12:07:17;;;;;;;22.23;4.05;;;12.40;99.90;;;;;;5115065;28;20191;-68
2023/12/29 12:09:43;;;;;;;;;;;12.40;99.90;;;;;;5113745;28;20024;-69
2023/12/29 12:12:10;;;;;;;31.00;5.60;;;12.20;99.90;;;;;;5115124;28;19910;-68
2023/12/29 12:14:53;;;;;;;24.52;5.40;;;12.20;99.90;;;;;;5106517;28;20035;-68
2023/12/29 12:17:29;;;;;;;26.48;5.38;;;12.10;99.90;;;;;;5114251;27;20085;-68
2023/12/29 12:20:11;;;;;;;19.85;3.78;;;12.10;99.90;;;;;;5115868;28;20027;-68
2023/12/29 12:22:37;;;;;;;24.67;4.70;;;12.10;99.90;;;;;;5112327;28;20027;-68
2023/12/29 12:25:03;;;;;;;28.42;4.40;;;12.00;99.90;;;;;;5115444;28;20469;-68
2023/12/29 12:27:31;;;;;;;26.13;5.60;;;12.00;99.90;;;;;;5109548;28;20051;-69
2023/12/29 12:30:01;;;;;;;21.05;4.47;;;12.10;99.90;;;;;;5114027;28;20043;-68
2023/12/29 12:32:28;;;;;;;24.60;3.92;;;12.30;99.90;;;;;;5113598;28;20042;-68
2023/12/29 12:34:53;;;;;;;21.65;3.65;;;12.40;99.90;;;;;;5095815;28;20372;-68
2023/12/29 12:37:23;;;;;;;15.48;3.78;;;12.50;99.90;;;;;;5115398;28;20023;-68